• Join FlightAware (Why Join?)
  • Login
  • US Flag 
07:21PM EDT


 

Airport Tracker/Info


-or-


 

Live Flight TrackerFlight Track Log ✈ DAL268 ✈ 05-Jul-2013 ✈ KJFK - LLBG / TLV

Flight Track Log - Related Links

Times and Time Zones

All times are in EDT time to prevent confusion due to time zone crossing. See the DAL268 flight status page for this flight to view local times or setup timezone preferences in your user account.

Time Position Orientation Groundspeed Altitude Reporting Facility
EDT Latitude Longitude Course Direction KTS MPH feet Rate Location/Type
11:56PM 40.6380 -73.7790 North 9 10  Level FlightAware
12:06AM 40.6350 -73.7780 143° Southeast 17 20 60 Level FlightAware
12:06AM 40.6350 -73.7770 90° East 14 16 180 Level FlightAware
12:07AM 40.6360 -73.7770 360° North 13 15 180 Level FlightAware
12:07AM 40.6360 -73.7760 90° East 15 17 180 Level FlightAware
12:07AM 40.6370 -73.7760 360° North 24 28 180 Level FlightAware
12:08AM 40.6380 -73.7750 37° Northeast 28 32 240 Level FlightAware
12:08AM 40.6400 -73.7730 37° Northeast 32 37 240 Level FlightAware
12:09AM 40.6410 -73.7720 37° Northeast 34 39 240 Level FlightAware
12:09AM 40.6420 -73.7710 37° Northeast 28 32 240 Level FlightAware
12:10AM 40.6440 -73.7700 21° North 22 25 300 Level FlightAware
12:10AM 40.6450 -73.7700 360° North 26 30 300 Level FlightAware
12:11AM 40.6470 -73.7690 21° North 24 28 360 Level FlightAware
12:12AM 40.6490 -73.7670 37° Northeast 14 16 420 Level FlightAware
12:13AM 40.6490 -73.7660 90° East 19 22 480 Level FlightAware
12:14AM 40.6480 -73.7650 143° Southeast 13 15 660 Level FlightAware
12:16AM 40.5882 -73.4027 108° East  Level FlightAware Approximate
12:16AM 40.5590 -73.8200 108° East 233 268 2,100  Level FlightAware
12:16AM 40.5290 -73.8050 159° South 281 323 2,400 960 Climbing FlightAware
12:17AM 40.5180 -73.7860 127° Southeast 288 331 2,800 1,860 Climbing FlightAware
12:17AM 40.5130 -73.7740 119° Southeast 292 336 3,000 1,500 Climbing FlightAware
12:17AM 40.5060 -73.7360 104° East 308 354 3,500 1,680 Climbing FlightAware
12:17AM 40.5061 -73.7155 90° East 313 360 3,900 2,160 Climbing FlightAware ADS-B
12:17AM 40.5074 -73.7022 83° East 312 359 4,200 2,520 Climbing FlightAware ADS-B
12:18AM 40.5097 -73.6894 77° East 311 358 4,500 2,280 Climbing FlightAware ADS-B
12:18AM 40.5148 -73.6695 71° East 313 360 4,900 1,980 Climbing FlightAware ADS-B
12:18AM 40.5209 -73.6520 65° Northeast 319 367 5,200 1,680 Climbing FlightAware ADS-B
12:18AM 40.5315 -73.6260 62° Northeast 324 373 5,600 2,160 Climbing FlightAware ADS-B
12:18AM 40.5431 -73.5983 61° Northeast 326 375 6,300 2,460 Climbing FlightAware ADS-B
12:19AM 40.5554 -73.5709 59° Northeast 327 376 6,900 2,160 Climbing FlightAware ADS-B
12:19AM 40.5600 -73.5606 60° Northeast 330 380 7,100 1,620 Climbing FlightAware ADS-B
12:19AM 40.5635 -73.5517 63° Northeast 333 383 7,200 1,620 Climbing FlightAware ADS-B
12:19AM 40.5673 -73.5404 66° East 335 386 7,400 1,800 Climbing FlightAware ADS-B
12:19AM 40.5706 -73.5290 69° East 338 389 7,600 1,980 Climbing FlightAware ADS-B
12:19AM 40.5729 -73.5190 73° East 339 390 7,800 2,700 Climbing FlightAware ADS-B
12:19AM 40.5787 -73.4894 76° East 334 384 8,500 2,700 Climbing FlightAware ADS-B
12:20AM 40.5852 -73.4583 75° East 330 380 9,200 2,280 Climbing FlightAware ADS-B
12:20AM 40.5921 -73.4293 73° East 337 388 9,700 1,560 Climbing FlightAware ADS-B
12:20AM 40.6068 -73.3669 73° East 354 407 10,400 1,500 Climbing FlightAware ADS-B
12:21AM 40.6228 -73.3027 72° East 365 420 11,300 1,380 Climbing FlightAware ADS-B
12:21AM 40.6392 -73.2319 73° East 391 450 11,900 1,320 Climbing FlightAware ADS-B
12:22AM 40.6525 -73.1587 77° East 406 467 12,700 1,440 Climbing FlightAware ADS-B
12:22AM 40.6619 -73.0811 81° East 426 490 13,400 1,200 Climbing FlightAware ADS-B
12:23AM 40.6696 -73.0018 83° East 447 514 14,000 1,620 Climbing FlightAware ADS-B
12:24AM 40.6784 -72.9171 82° East 455 524 15,100 2,040 Climbing FlightAware ADS-B
12:24AM 40.6868 -72.8318 83° East 462 532 16,100 1,560 Climbing FlightAware ADS-B
12:25AM 40.6944 -72.7458 83° East 480 552 16,700 1,800 Climbing FlightAware ADS-B
12:25AM 40.7020 -72.6559 84° East 478 550 18,000 1,740 Climbing FlightAware ADS-B
12:26AM 40.7094 -72.5648 84° East 495 570 18,500 1,080 Climbing FlightAware ADS-B
12:26AM 40.7177 -72.4731 83° East 509 586 19,100 1,800 Climbing FlightAware ADS-B
12:27AM 40.7279 -72.3353 84° East 504 580 20,800 1,620 Climbing FlightAware ADS-B
12:27AM 40.7370 -72.2297 83° East 520 598 21,300 1,320 Climbing FlightAware ADS-B
12:28AM 40.7488 -72.1291 81° East 524 603 22,300 1,680 Climbing FlightAware ADS-B
12:28AM 40.7660 -72.0360 76° East 527 606 23,100 540 Climbing FlightAware
12:29AM 40.7950 -71.8990 74° East 527 606 23,100 1,020 Level FlightAware
12:30AM 40.8230 -71.7480 76° East 544 626 25,000 1,860 Climbing FlightAware
12:31AM 40.8610 -71.5400 76° East 552 635 26,300 900 Climbing FlightAware
12:32AM 40.8830 -71.4320 75° East 552 635 26,300  Level FlightAware
12:32AM 40.9100 -71.2990 75° East 552 635 26,300 1,800 Level FlightAware
12:33AM 40.9550 -71.1190 72° East 554 638 29,100 2,820 Climbing FlightAware
12:34AM 40.9900 -71.0030 68° East 546 628 30,100 1,380 Climbing FlightAware
12:35AM 41.0320 -70.8640 68° East 546 628 31,000 660 Climbing FlightAware
12:35AM 41.0660 -70.7560 67° East 546 628 31,000  Level FlightAware
12:36AM 41.1260 -70.5670 67° East 545 627 31,000  Level FlightAware
12:37AM 41.1650 -70.4440 67° East 545 627 31,000  Level FlightAware
12:38AM 41.1950 -70.3490 67° East 545 627 31,000  Level FlightAware
12:38AM 41.2250 -70.2550 67° East 545 627 31,000  Level FlightAware
12:39AM 41.2630 -70.1340 67° East 545 627 31,000  Level FlightAware
12:39AM 41.2940 -70.0400 66° East 545 627 31,000  Level FlightAware
12:40AM 41.3350 -69.9110 67° East 545 627 31,000  Level FlightAware
12:41AM 41.3650 -69.8160 67° East 545 627 31,000  Level FlightAware
12:42AM 41.4050 -69.6900 67° East 545 627 31,000  Level FlightAware
12:42AM 41.4350 -69.5950 67° East 545 627 31,000  Level FlightAware
12:43AM 41.4760 -69.4660 67° East 545 627 31,000  Level FlightAware
12:44AM 41.5040 -69.3770 67° East 545 627 31,000  Level FlightAware
12:44AM 41.5430 -69.2560 67° East 545 627 31,000  Level FlightAware
12:46AM 41.5970 -69.0870 67° East 545 627 31,000  Level FlightAware
12:46AM 41.6270 -68.9920 67° East 545 627 31,000  Level FlightAware
12:50AM 41.8810 -68.0150 70° East 554 638 31,000  Level FlightAware
12:50AM 41.9110 -67.9080 69° East 554 638 31,000  Level FlightAware
12:51AM 41.9410 -67.8050 69° East 554 638 31,000  Level FlightAware
12:51AM 41.9720 -67.6950 69° East 554 638 31,000  Level FlightAware
12:52AM 42.0100 -67.5640 69° East 554 638 31,000  Level FlightAware
12:53AM 42.0670 -67.3450 71° East 545 627 31,000  Level FlightAware
12:54AM 42.0930 -67.2470 70° East 545 627 31,000  Level FlightAware
12:55AM 42.1290 -67.1170 69° East 545 627 31,000  Level FlightAware
12:55AM 42.1540 -67.0250 70° East 545 627 31,000  Level FlightAware
12:56AM 42.1960 -66.8670 70° East 545 627 31,000  Level FlightAware
12:57AM 42.2220 -66.7690 70° East 545 627 31,000  Level FlightAware
12:57AM 42.2490 -66.6710 70° East 545 627 31,000  Level FlightAware
12:58AM 42.2820 -66.5460 70° East 545 627 31,000  Level FlightAware
12:59AM 42.3090 -66.4480 70° East 545 627 31,000  Level FlightAware
01:00AM 42.3620 -66.2520 70° East 545 627 31,000  Level FlightAware
01:00AM 42.3880 -66.1540 70° East 545 627 31,000  Level FlightAware
01:01AM 42.4240 -66.0200 70° East 545 627 31,000  Level FlightAware
01:02AM 42.4500 -65.9220 70° East 545 627 31,000  Level FlightAware
01:03AM 42.4850 -65.7910 70° East 545 627 31,000 300 Level FlightAware
01:06AM 42.6950 -64.9420 71° East 33,000 360 Climbing FlightAware
01:08AM 42.8050 -64.4940 71° East 539 620 33,000  Level FlightAware
01:09AM 42.8460 -64.3240 72° East 539 620 33,000  Level FlightAware
01:10AM 42.8690 -64.2280 72° East 539 620 33,000  Level FlightAware
01:10AM 42.8930 -64.1260 72° East 539 620 33,000  Level FlightAware
01:11AM 42.9270 -63.9880 71° East 535 616 33,000  Level FlightAware
01:11AM 42.9550 -63.8680 72° East 535 616 33,000  Level FlightAware
01:12AM 42.9990 -63.6820 72° East 535 616 33,000  Level FlightAware
01:13AM 43.0220 -63.5840 72° East 535 616 33,000  Level FlightAware
01:14AM 43.0530 -63.4520 72° East 535 616 33,000  Level FlightAware
01:14AM 43.0770 -63.3510 72° East 535 616 33,000  Level FlightAware
01:15AM 43.1170 -63.1840 72° East 535 616 33,000  Level FlightAware
01:16AM 43.1480 -63.0520 72° East 535 616 33,000  Level FlightAware
01:17AM 43.1720 -62.9530 72° East 535 616 33,000  Level FlightAware
01:17AM 43.1960 -62.8520 72° East 535 616 33,000  Level FlightAware
01:18AM 43.2280 -62.7170 72° East 535 616 33,000  Level FlightAware
01:19AM 43.2510 -62.6180 72° East 535 616 33,000  Level FlightAware
01:20AM 43.2830 -62.4840 72° East 535 616 33,000  Level FlightAware
01:20AM 43.3530 -62.1170 75° East 33,000  Level FlightAware
01:23AM 43.4790 -61.5360 73° East 33,000  Level FlightAware
01:24AM 43.5000 -61.3500 73° East 540 621 33,000  Level Moncton Center
01:24AM 43.5167 -61.2667 75° East 540 621 33,000  Level Gander Center
01:25AM 43.5667 -61.0500 72° East 540 621 33,000  Level Gander Center
01:26AM 43.5833 -60.9667 75° East 540 621 33,000  Level Moncton Center
01:27AM 43.6333 -60.7667 71° East 540 621 33,000  Level Moncton Center
01:27AM 43.6500 -60.6667 77° East 540 621 33,000  Level Gander Center
01:28AM 43.6667 -60.5667 77° East 540 621 33,000  Level Moncton Center
01:29AM 43.7000 -60.3500 78° East 550 633 33,000  Level Moncton Center
01:29AM 43.7167 -60.2500 77° East 550 633 33,000  Level Gander Center
01:36AM 43.9790 -59.0250 77° East 546 628 33,000  Level FlightAware
01:36AM 44.0030 -58.8990 75° East 546 628 33,000  Level FlightAware
01:37AM 44.0300 -58.7570 75° East 546 628 33,000  Level FlightAware
01:38AM 44.0540 -58.6250 76° East 544 626 33,000  Level FlightAware
01:38AM 44.0790 -58.4830 76° East 545 627 33,000  Level FlightAware
01:39AM 44.1070 -58.3300 76° East 545 627 33,000  Level FlightAware
01:40AM 44.1290 -58.2070 76° East 546 628 33,000  Level FlightAware
01:40AM 44.1590 -58.0400 76° East 546 628 33,000  Level FlightAware
01:41AM 44.1800 -57.9230 76° East 546 628 33,000  Level FlightAware
01:42AM 44.1990 -57.8180 76° East 546 628 33,000  Level FlightAware
01:42AM 44.2310 -57.6300 77° East 547 629 33,000  Level FlightAware
01:43AM 44.2550 -57.4890 77° East 547 629 33,000  Level FlightAware
01:44AM 44.2800 -57.3420 77° East 546 628 33,000  Level FlightAware
01:44AM 44.3020 -57.2220 76° East 546 628 33,000  Level FlightAware
01:45AM 44.3200 -57.1170 76° East 546 628 33,000  Level FlightAware
01:46AM 44.3460 -56.9750 76° East 546 628 33,000  Level FlightAware
01:46AM 44.3650 -56.8670 76° East 546 628 33,000  Level FlightAware
01:47AM 44.3900 -56.7270 76° East 546 628 33,000  Level FlightAware
01:48AM 44.4090 -56.6220 76° East 546 628 33,000  Level FlightAware
01:49AM 44.4330 -56.4850 76° East 546 628 33,000  Level FlightAware
01:49AM 44.4520 -56.3800 76° East 546 628 33,000  Level FlightAware
01:50AM 44.4820 -56.2100 76° East 546 628 33,000  Level FlightAware
01:51AM 44.5010 -56.1050 76° East 546 628 33,000  Level FlightAware
01:52AM 44.5250 -55.9650 76° East 546 628 33,000  Level FlightAware
01:53AM 44.5640 -55.7490 76° East 546 628 33,000  Level FlightAware
01:53AM 44.5830 -55.6410 76° East 546 628 33,000  Level FlightAware
01:54AM 44.5667 -55.1667 76° East 560 644 33,000  Level Gander Center
01:55AM 44.5833 -55.0000 82° East 550 633 33,000  Level Moncton Center
01:55AM 44.5833 -54.8833 90° East 560 644 33,000  Level Gander Center
01:56AM 44.6000 -54.6500 84° East 560 644 33,000  Level Gander Center
01:57AM 44.6500 -54.4667 69° East 550 633 33,000  Level Gander Center
01:58AM 44.6500 -54.3167 90° East 570 656 33,000  Level Gander Center
01:59AM 44.6833 -54.1000 78° East 560 644 33,000  Level Gander Center
02:00AM 44.7167 -53.8833 78° East 570 656 33,000  Level Gander Center
02:01AM 44.7667 -53.6667 72° East 560 644 33,000  Level Gander Center
02:02AM 44.8000 -53.4500 78° East 560 644 33,000  Level Gander Center
02:03AM 44.8500 -53.2500 71° East 570 656 33,000  Level Gander Center
02:04AM 44.8833 -53.0333 78° East 570 656 33,000  Level Gander Center
02:05AM 44.9000 -52.8333 83° East 560 644 33,000  Level Gander Center
02:06AM 44.9333 -52.6000 79° East 560 644 33,000  Level Gander Center
02:07AM 44.9667 -52.3833 78° East 560 644 33,000  Level Gander Center
02:08AM 45.0167 -52.1667 72° East 570 656 33,000  Level Gander Center
02:09AM 45.0500 -51.9500 78° East 570 656 33,000 600 Level Gander Center
02:10AM 45.0667 -51.7333 84° East 560 644 34,200 900 Climbing Gander Center
02:11AM 45.1000 -51.5333 77° East 560 644 34,900 660 Climbing Gander Center
02:12AM 45.1500 -51.3167 72° East 560 644 35,600 720 Climbing Gander Center
02:13AM 45.2167 -51.1167 65° Northeast 560 644 36,400 540 Climbing Gander Center
02:14AM 45.2667 -50.9167 70° East 570 656 36,700 300 Climbing Gander Center
02:15AM 45.3167 -50.6833 73° East 570 656 37,000 120 Climbing Gander Center
02:16AM 45.3500 -50.4667 78° East 570 656 37,000  Level Gander Center
02:17AM 45.4000 -50.2333 73° East 570 656 37,000  Level Gander Center
02:18AM 45.4500 -50.0333 70° East 570 656 37,000  Level Gander Center
02:19AM 45.4833 -49.8333 77° East 570 656 37,000  Level Gander Center
02:20AM 45.5333 -49.6167 72° East 560 644 37,000  Level Gander Center
02:21AM 45.5667 -49.4167 77° East 570 656 37,000  Level Gander Center
02:22AM 45.6000 -49.1833 78° East 560 644 37,000  Level Gander Center
02:23AM 45.6500 -48.9833 70° East 560 644 37,000  Level Gander Center
02:24AM 45.7000 -48.7667 72° East 550 633 37,000  Level Gander Center
02:25AM 45.7333 -48.5500 77° East 550 633 37,000  Level Gander Center
02:26AM 45.7833 -48.3333 72° East 550 633 37,000  Level Gander Center
02:28AM 45.8117 -48.0978 75° East  Level FlightAware Approximate
02:35AM 46.0669 -46.6702 75° East  Level FlightAware Approximate
02:36AM 46.1019 -46.4652 76° East  Level FlightAware Approximate
02:37AM 46.1366 -46.2600 76° East  Level FlightAware Approximate
02:38AM 46.1708 -46.0545 76° East  Level FlightAware Approximate
02:39AM 46.2047 -45.8487 77° East  Level FlightAware Approximate
02:40AM 46.2383 -45.6427 77° East  Level FlightAware Approximate
02:41AM 46.2714 -45.4364 77° East  Level FlightAware Approximate
02:42AM 46.3042 -45.2299 77° East  Level FlightAware Approximate
02:43AM 46.3366 -45.0231 77° East  Level FlightAware Approximate
02:44AM 46.3687 -44.8161 77° East  Level FlightAware Approximate
02:45AM 46.3992 -44.6161 77° East  Level FlightAware Approximate
02:46AM 46.4295 -44.4158 78° East  Level FlightAware Approximate
02:47AM 46.4593 -44.2153 78° East  Level FlightAware Approximate
02:48AM 46.4888 -44.0146 78° East  Level FlightAware Approximate
02:49AM 46.5180 -43.8137 78° East  Level FlightAware Approximate
02:50AM 46.5468 -43.6125 78° East  Level FlightAware Approximate
02:51AM 46.5753 -43.4112 78° East  Level FlightAware Approximate
02:52AM 46.6034 -43.2096 78° East  Level FlightAware Approximate
02:53AM 46.6312 -43.0079 79° East  Level FlightAware Approximate
02:54AM 46.6586 -42.8059 79° East  Level FlightAware Approximate
02:55AM 46.6856 -42.6037 79° East  Level FlightAware Approximate
02:56AM 46.7123 -42.4013 79° East  Level FlightAware Approximate
02:57AM 46.7387 -42.1987 79° East  Level FlightAware Approximate
02:58AM 46.7646 -41.9960 79° East  Level FlightAware Approximate
02:59AM 46.7902 -41.7930 79° East  Level FlightAware Approximate
03:00AM 46.8155 -41.5899 80° East  Level FlightAware Approximate
03:01AM 46.8404 -41.3865 80° East  Level FlightAware Approximate
03:02AM 46.8649 -41.1830 80° East  Level FlightAware Approximate
03:03AM 46.8891 -40.9792 80° East  Level FlightAware Approximate
03:04AM 46.9129 -40.7753 80° East  Level FlightAware Approximate
03:05AM 46.9364 -40.5713 80° East  Level FlightAware Approximate
03:06AM 46.9595 -40.3670 81° East  Level FlightAware Approximate
03:07AM 46.9822 -40.1626 81° East  Level FlightAware Approximate
03:08AM 47.0061 -39.9584 78° East  Level FlightAware Approximate
03:09AM 47.0354 -39.7556 78° East  Level FlightAware Approximate
03:10AM 47.0644 -39.5526 78° East  Level FlightAware Approximate
03:11AM 47.0930 -39.3493 78° East  Level FlightAware Approximate
03:12AM 47.1213 -39.1459 78° East  Level FlightAware Approximate
03:13AM 47.1492 -38.9422 79° East  Level FlightAware Approximate
03:14AM 47.1768 -38.7383 79° East  Level FlightAware Approximate
03:15AM 47.2040 -38.5342 79° East  Level FlightAware Approximate
03:16AM 47.2308 -38.3299 79° East  Level FlightAware Approximate
03:17AM 47.2572 -38.1254 79° East  Level FlightAware Approximate
03:18AM 47.2833 -37.9206 79° East  Level FlightAware Approximate
03:19AM 47.3090 -37.7161 79° East  Level FlightAware Approximate
03:20AM 47.3344 -37.5113 80° East  Level FlightAware Approximate
03:21AM 47.3593 -37.3063 80° East  Level FlightAware Approximate
03:22AM 47.3839 -37.1012 80° East  Level FlightAware Approximate
03:23AM 47.4081 -36.8959 80° East  Level FlightAware Approximate
03:24AM 47.4320 -36.6903 80° East  Level FlightAware Approximate
03:25AM 47.4555 -36.4846 80° East  Level FlightAware Approximate
03:26AM 47.4786 -36.2787 80° East  Level FlightAware Approximate
03:27AM 47.5014 -36.0726 81° East  Level FlightAware Approximate
03:28AM 47.5238 -35.8664 81° East  Level FlightAware Approximate
03:29AM 47.5458 -35.6599 81° East  Level FlightAware Approximate
03:30AM 47.5674 -35.4533 81° East  Level FlightAware Approximate
03:31AM 47.5887 -35.2466 81° East  Level FlightAware Approximate
03:32AM 47.6096 -35.0396 81° East  Level FlightAware Approximate
03:33AM 47.6301 -34.8325 82° East  Level FlightAware Approximate
03:34AM 47.6503 -34.6253 82° East  Level FlightAware Approximate
03:35AM 47.6701 -34.4178 82° East  Level FlightAware Approximate
03:36AM 47.6895 -34.2103 82° East  Level FlightAware Approximate
03:37AM 47.7085 -34.0025 82° East  Level FlightAware Approximate
03:38AM 47.7271 -33.7947 82° East  Level FlightAware Approximate
03:39AM 47.7454 -33.5866 82° East  Level FlightAware Approximate
03:40AM 47.7633 -33.3784 83° East  Level FlightAware Approximate
03:41AM 47.7809 -33.1701 83° East  Level FlightAware Approximate
03:42AM 47.7980 -32.9617 83° East  Level FlightAware Approximate
03:43AM 47.8148 -32.7531 83° East  Level FlightAware Approximate
03:44AM 47.8312 -32.5444 83° East  Level FlightAware Approximate
03:45AM 47.8472 -32.3355 83° East  Level FlightAware Approximate
03:46AM 47.8629 -32.1265 84° East  Level FlightAware Approximate
03:47AM 47.8781 -31.9174 84° East  Level FlightAware Approximate
03:48AM 47.8930 -31.7082 84° East  Level FlightAware Approximate
03:49AM 47.9075 -31.4988 84° East  Level FlightAware Approximate
03:50AM 47.9216 -31.2894 84° East  Level FlightAware Approximate
03:51AM 47.9354 -31.0798 84° East  Level FlightAware Approximate
03:52AM 47.9487 -30.8701 84° East  Level FlightAware Approximate
03:53AM 47.9617 -30.6603 85° East  Level FlightAware Approximate
03:54AM 47.9743 -30.4504 85° East  Level FlightAware Approximate
03:55AM 47.9865 -30.2404 85° East  Level FlightAware Approximate
03:56AM 47.9983 -30.0303 85° East  Level FlightAware Approximate
03:57AM 48.0066 -29.8198 87° East  Level FlightAware Approximate
03:58AM 48.0140 -29.6092 87° East  Level FlightAware Approximate
03:59AM 48.0210 -29.3985 87° East  Level FlightAware Approximate
04:00AM 48.0276 -29.1878 87° East  Level FlightAware Approximate
04:01AM 48.0339 -28.9770 87° East  Level FlightAware Approximate
04:02AM 48.0397 -28.7662 88° East  Level FlightAware Approximate
04:03AM 48.0452 -28.5553 88° East  Level FlightAware Approximate
04:04AM 48.0502 -28.3444 88° East  Level FlightAware Approximate
04:05AM 48.0549 -28.1334 88° East  Level FlightAware Approximate
04:06AM 48.0592 -27.9224 88° East  Level FlightAware Approximate
04:07AM 48.0631 -27.7113 88° East  Level FlightAware Approximate
04:08AM 48.0667 -27.5003 88° East  Level FlightAware Approximate
04:09AM 48.0715 -27.2893 88° East  Level FlightAware Approximate
04:10AM 48.0759 -27.0782 88° East  Level FlightAware Approximate
04:11AM 48.0799 -26.8671 88° East  Level FlightAware Approximate
04:12AM 48.0835 -26.6560 88° East  Level FlightAware Approximate
04:13AM 48.0868 -26.4448 89° East  Level FlightAware Approximate
04:14AM 48.0897 -26.2336 89° East  Level FlightAware Approximate
04:15AM 48.0922 -26.0224 89° East  Level FlightAware Approximate
04:16AM 48.0943 -25.8112 89° East  Level FlightAware Approximate
04:17AM 48.0960 -25.5999 89° East  Level FlightAware Approximate
04:18AM 48.0973 -25.3887 89° East  Level FlightAware Approximate
04:19AM 48.0982 -25.1774 90° East  Level FlightAware Approximate
04:20AM 48.0988 -24.9662 90° East  Level FlightAware Approximate
04:21AM 48.0989 -24.7549 90° East  Level FlightAware Approximate
04:22AM 48.0987 -24.5436 90° East  Level FlightAware Approximate
04:23AM 48.0981 -24.3323 90° East  Level FlightAware Approximate
04:24AM 48.0971 -24.1211 90° East  Level FlightAware Approximate
04:25AM 48.0957 -23.9098 90° East  Level FlightAware Approximate
04:26AM 48.0939 -23.6986 91° East  Level FlightAware Approximate
04:27AM 48.0918 -23.4874 91° East  Level FlightAware Approximate
04:28AM 48.0892 -23.2762 91° East  Level FlightAware Approximate
04:29AM 48.0863 -23.0650 91° East  Level FlightAware Approximate
04:30AM 48.0830 -22.8538 91° East  Level FlightAware Approximate
04:31AM 48.0793 -22.6427 91° East  Level FlightAware Approximate
04:32AM 48.0752 -22.4316 92° East  Level FlightAware Approximate
04:33AM 48.0707 -22.2205 92° East  Level FlightAware Approximate
04:34AM 48.0658 -22.0095 92° East  Level FlightAware Approximate
04:35AM 48.0606 -21.7985 92° East  Level FlightAware Approximate
04:36AM 48.0549 -21.5876 92° East  Level FlightAware Approximate
04:37AM 48.0489 -21.3767 92° East  Level FlightAware Approximate
04:38AM 48.0425 -21.1659 93° East  Level FlightAware Approximate
04:39AM 48.0357 -20.9551 93° East  Level FlightAware Approximate
04:40AM 48.0285 -20.7444 93° East  Level FlightAware Approximate
04:41AM 48.0209 -20.5337 93° East  Level FlightAware Approximate
04:42AM 48.0130 -20.3231 93° East  Level FlightAware Approximate
04:43AM 48.0046 -20.1129 93° East  Level FlightAware Approximate
04:44AM 48.0018 -19.9027 88° East  Level FlightAware Approximate
04:45AM 48.0054 -19.6922 88° East  Level FlightAware Approximate
04:46AM 48.0086 -19.4817 89° East  Level FlightAware Approximate
04:47AM 48.0114 -19.2712 89° East  Level FlightAware Approximate
04:48AM 48.0138 -19.0607 89° East  Level FlightAware Approximate
04:49AM 48.0158 -18.8501 89° East  Level FlightAware Approximate
04:50AM 48.0179 -18.6396 89° East  Level FlightAware Approximate
04:51AM 48.0200 -18.4290 89° East  Level FlightAware Approximate
04:52AM 48.0217 -18.2184 89° East  Level FlightAware Approximate
04:53AM 48.0231 -18.0079 89° East  Level FlightAware Approximate
04:54AM 48.0240 -17.7973 90° East  Level FlightAware Approximate
04:55AM 48.0246 -17.5866 90° East  Level FlightAware Approximate
04:56AM 48.0247 -17.3760 90° East  Level FlightAware Approximate
04:57AM 48.0245 -17.1654 90° East  Level FlightAware Approximate
04:58AM 48.0239 -16.9548 90° East  Level FlightAware Approximate
04:59AM 48.0229 -16.7442 90° East  Level FlightAware Approximate
05:00AM 48.0216 -16.5336 90° East  Level FlightAware Approximate
05:01AM 48.0198 -16.3230 91° East  Level FlightAware Approximate
05:02AM 48.0177 -16.1125 91° East  Level FlightAware Approximate
05:03AM 48.0152 -15.9019 91° East  Level FlightAware Approximate
05:04AM 48.0122 -15.6914 91° East  Level FlightAware Approximate
05:05AM 48.0090 -15.4809 91° East  Level FlightAware Approximate
05:06AM 48.0053 -15.2705 91° East  Level FlightAware Approximate
05:07AM 48.0012 -15.0600 92° East  Level FlightAware Approximate
05:08AM 47.9807 -14.8524 101° East  Level FlightAware Approximate
05:09AM 47.9534 -14.6460 101° East  Level FlightAware Approximate
05:10AM 47.9256 -14.4398 101° East  Level FlightAware Approximate
05:11AM 47.8976 -14.2339 101° East  Level FlightAware Approximate
05:12AM 47.8691 -14.0282 102° East  Level FlightAware Approximate
05:13AM 47.8403 -13.8227 102° East  Level FlightAware Approximate
05:14AM 47.8111 -13.6175 102° East  Level FlightAware Approximate
05:15AM 47.7816 -13.4125 102° East  Level FlightAware Approximate
05:16AM 47.7517 -13.2077 102° East  Level FlightAware Approximate
05:17AM 47.7214 -13.0031 102° East  Level FlightAware Approximate
05:18AM 47.6908 -12.7988 102° East  Level FlightAware Approximate
05:19AM 47.6598 -12.5948 103° East  Level FlightAware Approximate
05:20AM 47.6284 -12.3909 103° East  Level FlightAware Approximate
05:21AM 47.5967 -12.1874 103° East  Level FlightAware Approximate
05:22AM 47.5646 -11.9840 103° East  Level FlightAware Approximate
05:23AM 47.5322 -11.7809 103° East  Level FlightAware Approximate
05:24AM 47.4994 -11.5781 103° East  Level FlightAware Approximate
05:25AM 47.4662 -11.3755 104° East  Level FlightAware Approximate
05:26AM 47.4327 -11.1732 104° East  Level FlightAware Approximate
05:27AM 47.3988 -10.9712 104° East  Level FlightAware Approximate
05:28AM 47.3646 -10.7694 104° East  Level FlightAware Approximate
05:29AM 47.3300 -10.5679 104° East  Level FlightAware Approximate
05:30AM 47.2951 -10.3666 104° East  Level FlightAware Approximate
05:31AM 47.2598 -10.1656 104° East  Level FlightAware Approximate
05:32AM 47.2242 -9.9649 105° East  Level FlightAware Approximate
05:33AM 47.1882 -9.7644 105° East  Level FlightAware Approximate
05:34AM 47.1519 -9.5642 105° East  Level FlightAware Approximate
05:35AM 47.1152 -9.3643 105° East  Level FlightAware Approximate
05:36AM 47.0782 -9.1646 105° East  Level FlightAware Approximate
05:37AM 47.0408 -8.9653 105° East  Level FlightAware Approximate
05:38AM 47.0031 -8.7662 105° East  Level FlightAware Approximate
05:39AM 47.0005 -8.5603 90° East  Level FlightAware Approximate
05:40AM 47.0006 -8.3538 90° East  Level FlightAware Approximate
05:41AM 47.0004 -8.1472 90° East  Level FlightAware Approximate
05:42AM 46.9946 -7.9412 98° East  Level FlightAware Approximate
05:42AM 46.9270 -7.4760 98° East 515 593 37,000  Level FlightAware
05:43AM 46.9756 -7.7366 98° East  Level FlightAware Approximate
05:43AM 46.9110 -7.3590 101° East 515 593 37,000  Level FlightAware
05:44AM 46.8830 -7.1760 103° East 517 595 37,000  Level FlightAware
05:45AM 46.8580 -6.9980 102° East 517 595 37,000  Level FlightAware
05:46AM 46.8350 -6.8450 102° East 517 595 37,000  Level FlightAware
05:46AM 46.8140 -6.6990 102° East 517 595 37,000  Level FlightAware
05:47AM 46.7920 -6.5520 102° East 517 595 37,000  Level FlightAware
05:48AM 46.7690 -6.4020 103° East 519 597 37,000  Level FlightAware
05:48AM 46.7490 -6.2730 103° East 520 598 37,000  Level FlightAware
05:49AM 46.7270 -6.1290 103° East 521 600 37,000  Level FlightAware
05:50AM 46.7070 -6.0020 103° East 523 602 37,000  Level FlightAware
05:50AM 46.6850 -5.8610 103° East 525 604 37,000  Level FlightAware
05:51AM 46.6640 -5.7270 103° East 525 604 37,000  Level FlightAware
05:52AM 46.6410 -5.5860 103° East 526 605 37,000  Level FlightAware
05:52AM 46.6200 -5.4550 103° East 525 604 37,000  Level FlightAware
05:53AM 46.5980 -5.3180 103° East 526 605 37,000  Level FlightAware
05:54AM 46.5720 -5.1560 103° East 527 606 37,000  Level FlightAware
05:54AM 46.5480 -5.0080 103° East 528 608 37,000  Level FlightAware
05:55AM 46.5250 -4.8700 104° East 528 608 37,000  Level FlightAware
05:56AM 46.5020 -4.7290 103° East 528 608 37,000  Level FlightAware
05:56AM 46.4840 -4.6190 103° East 528 608 37,000  Level FlightAware
05:57AM 46.4590 -4.4680 103° East 528 608 37,000  Level FlightAware
05:58AM 46.4330 -4.3170 104° East 528 608 37,000  Level FlightAware
05:58AM 46.4150 -4.2070 103° East 528 608 37,000  Level FlightAware
05:59AM 46.3870 -4.0490 104° East 528 608 37,000  Level FlightAware
06:00AM 46.3630 -3.9120 104° East 529 609 37,000  Level FlightAware
06:00AM 46.3410 -3.7780 103° East 529 609 37,000  Level FlightAware
06:01AM 46.3170 -3.6400 104° East 531 611 37,000  Level FlightAware
06:02AM 46.2910 -3.4930 104° East 531 611 37,000  Level FlightAware
06:02AM 46.2670 -3.3630 105° East 531 611 37,000  Level FlightAware
06:03AM 46.2390 -3.2150 105° East 532 612 37,000  Level FlightAware
06:04AM 46.2130 -3.0750 105° East 533 613 37,000  Level FlightAware
06:05AM 46.1840 -2.9170 105° East 533 613 37,000  Level FlightAware
06:05AM 46.1590 -2.7870 105° East 533 613 37,000  Level FlightAware
06:06AM 46.1350 -2.6560 105° East 532 612 37,000  Level FlightAware
06:07AM 46.1030 -2.4930 106° East 533 613 37,000  Level FlightAware
06:07AM 46.0750 -2.3490 106° East 533 613 37,000  Level FlightAware
06:08AM 46.0480 -2.2060 105° East 533 613 37,000  Level FlightAware
06:09AM 46.0220 -2.0540 104° East 533 613 37,000  Level FlightAware
06:09AM 46.0100 -1.9350 98° East 532 612 37,000  Level FlightAware
06:10AM 45.9940 -1.7740 98° East 532 612 37,000  Level FlightAware
06:11AM 45.9760 -1.6130 99° East 533 613 37,000  Level FlightAware
06:12AM 45.9610 -1.4840 99° East 534 615 37,000  Level FlightAware
06:12AM 45.9420 -1.3310 100° East 533 613 37,000  Level FlightAware
06:13AM 45.9250 -1.1880 100° East 533 613 37,000  Level FlightAware
06:14AM 45.9090 -1.0560 100° East 533 613 37,000  Level FlightAware
06:14AM 45.8910 -0.8960 99° East 533 613 37,000  Level FlightAware
06:15AM 45.8830 -0.8260 99° East 533 613 37,000  Level FlightAware
06:17AM 45.8320 -0.3850 99° East 532 612 37,000  Level FlightAware
06:18AM 45.8110 -0.2160 100° East 532 612 37,000  Level FlightAware
06:18AM 45.7940 -0.0770 100° East 532 612 37,000  Level FlightAware
06:19AM 45.7770 0.0650 100° East 530 610 37,000  Level FlightAware
06:20AM 45.7570 0.2200 100° East 531 611 37,000  Level FlightAware
06:20AM 45.7390 0.3550 101° East 530 610 37,000  Level FlightAware
06:21AM 45.7190 0.5100 100° East 532 612 37,000  Level FlightAware
06:22AM 45.7010 0.6480 101° East 532 612 37,000  Level FlightAware
06:23AM 45.6800 0.8030 101° East 531 611 37,000  Level FlightAware
06:23AM 45.6620 0.9450 100° East 531 611 37,000  Level FlightAware
06:24AM 45.6440 1.0790 101° East 532 612 37,000  Level FlightAware
06:25AM 45.6260 1.2140 101° East 531 611 37,000  Level FlightAware
06:25AM 45.6060 1.3650 101° East 531 611 37,000  Level FlightAware
06:26AM 45.5860 1.5120 101° East 529 609 37,000  Level FlightAware
06:27AM 45.5680 1.6450 101° East 528 608 37,000  Level FlightAware
06:27AM 45.5460 1.8030 101° East 527 606 37,000  Level FlightAware
06:28AM 45.5240 1.9590 101° East 527 606 37,000  Level FlightAware
06:29AM 45.5050 2.0950 101° East 526 605 37,000  Level FlightAware
06:29AM 45.4880 2.2170 101° East 525 604 37,000  Level FlightAware
06:30AM 45.4710 2.3390 101° East 525 604 37,000  Level FlightAware
06:31AM 45.4470 2.5120 101° East 524 603 37,000  Level FlightAware
06:31AM 45.4320 2.6170 101° East 523 602 37,000  Level FlightAware
06:32AM 45.4110 2.7620 102° East 523 602 37,000  Level FlightAware
06:33AM 45.3860 2.9400 101° East 522 601 37,000  Level FlightAware
06:34AM 45.3630 3.1010 101° East 522 601 37,000  Level FlightAware
06:34AM 45.3430 3.2290 102° East 523 602 37,000  Level FlightAware
06:35AM 45.3230 3.3630 102° East 523 602 37,000  Level FlightAware
06:36AM 45.3010 3.5100 102° East 522 601 37,000  Level FlightAware
06:36AM 45.2840 3.6240 102° East 523 602 37,000  Level FlightAware
06:37AM 45.2600 3.7750 103° East 522 601 37,000  Level FlightAware
06:38AM 45.2400 3.9080 102° East 521 600 37,000  Level FlightAware
06:38AM 45.2190 4.0240 104° East 521 600 37,000  Level FlightAware
06:39AM 45.1770 4.1510 115° Southeast 527 606 37,000  Level FlightAware
06:40AM 45.1160 4.2790 124° Southeast 528 608 37,000  Level FlightAware
06:40AM 45.0600 4.3890 126° Southeast 527 606 37,000  Level FlightAware
06:41AM 44.9990 4.5100 125° Southeast 527 606 37,000  Level FlightAware
06:42AM 44.9400 4.6240 126° Southeast 528 608 37,000  Level FlightAware
06:43AM 44.8780 4.7480 125° Southeast 528 608 37,000  Level FlightAware
06:43AM 44.8280 4.8490 125° Southeast 528 608 37,000  Level FlightAware
06:44AM 44.7710 4.9610 126° Southeast 529 609 37,000  Level FlightAware
06:44AM 44.7190 5.0610 126° Southeast 529 609 37,000  Level FlightAware
06:45AM 44.6340 5.2290 125° Southeast 529 609 37,000  Level FlightAware
06:46AM 44.5700 5.3520 126° Southeast 529 609 37,000  Level FlightAware
06:47AM 44.5140 5.4600 126° Southeast 529 609 37,000  Level FlightAware
06:48AM 44.4490 5.5880 125° Southeast 531 611 37,000  Level FlightAware
06:48AM 44.3900 5.7010 126° Southeast 532 612 37,000  Level FlightAware
06:49AM 44.3360 5.8040 126° Southeast 533 613 37,000  Level FlightAware
06:50AM 44.2720 5.9260 126° Southeast 533 613 37,000  Level FlightAware
06:50AM 44.2030 6.0560 126° Southeast 534 615 37,000  Level FlightAware
06:51AM 44.1490 6.1590 126° Southeast 535 616 37,000  Level FlightAware
06:52AM 44.0800 6.2890 126° Southeast 536 617 37,000  Level FlightAware
06:52AM 44.0220 6.3970 127° Southeast 536 617 37,000  Level FlightAware
06:53AM 43.9620 6.5080 127° Southeast 536 617 37,000  Level FlightAware
06:54AM 43.9030 6.6180 127° Southeast 537 618 37,000  Level FlightAware
06:55AM 43.8310 6.7530 126° Southeast 536 617 37,000  Level FlightAware
06:55AM 43.7790 6.8490 127° Southeast 537 618 37,000  Level FlightAware
06:56AM 43.7140 6.9740 126° Southeast 536 617 37,000  Level FlightAware
06:57AM 43.6600 7.0940 122° Southeast 535 616 37,000  Level FlightAware
06:57AM 43.6060 7.2200 121° Southeast 535 616 37,000  Level FlightAware
06:58AM 43.5500 7.3480 121° Southeast 537 618 37,000  Level FlightAware
06:59AM 43.4950 7.4710 122° Southeast 538 619 37,000  Level FlightAware
07:00AM 43.4400 7.5930 122° Southeast 537 618 37,000  Level FlightAware
07:00AM 43.3950 7.6950 121° Southeast 532 612 37,000  Level FlightAware
07:01AM 43.3330 7.8340 121° Southeast 534 615 37,000  Level FlightAware
07:02AM 43.2800 7.9520 122° Southeast 533 613 37,000  Level FlightAware
07:02AM 43.2360 8.0490 122° Southeast 532 612 37,000  Level FlightAware
07:03AM 43.1760 8.1810 122° Southeast 532 612 37,000  Level FlightAware
07:04AM 43.1270 8.2890 122° Southeast 530 610 37,000  Level FlightAware
07:04AM 43.0740 8.4030 122° Southeast 529 609 37,000  Level FlightAware
07:05AM 43.0260 8.5070 122° Southeast 528 608 37,000  Level FlightAware
07:06AM 42.9740 8.6200 122° Southeast 527 606 37,000  Level FlightAware
07:06AM 42.9130 8.7520 122° Southeast 527 606 37,000  Level FlightAware
07:07AM 42.8590 8.8700 122° Southeast 526 605 37,000  Level FlightAware
07:08AM 42.8070 8.9790 123° Southeast 520 598 37,000  Level FlightAware
07:08AM 42.7530 9.0950 122° Southeast 520 598 37,000  Level FlightAware
07:09AM 42.7010 9.2060 122° Southeast 519 597 37,000  Level FlightAware
07:10AM 42.6540 9.3030 123° Southeast 519 597 37,000  Level FlightAware
07:10AM 42.5960 9.4280 122° Southeast 519 597 37,000  Level FlightAware
07:11AM 42.5520 9.5440 117° Southeast 521 600 37,000  Level FlightAware
07:12AM 42.5260 9.6350 111° Southeast 518 596 37,000  Level FlightAware
07:12AM 42.4900 9.7740 109° East 522 601 37,000  Level FlightAware
07:13AM 42.4570 9.8970 110° East 523 602 37,000  Level FlightAware
07:14AM 42.4170 10.0480 110° East 523 602 37,000  Level FlightAware
07:14AM 42.3830 10.1730 110° East 524 603 37,000  Level FlightAware
07:15AM 42.3510 10.2930 110° East 524 603 37,000  Level FlightAware
07:16AM 42.3130 10.4350 110° East 523 602 37,000  Level FlightAware
07:17AM 42.2800 10.5570 110° East 523 602 37,000  Level FlightAware
07:17AM 42.2420 10.6950 110° East 520 598 37,000  Level FlightAware
07:18AM 42.2090 10.8160 110° East 517 595 37,000  Level FlightAware
07:19AM 42.1750 10.9360 111° Southeast 514 592 37,000  Level FlightAware
07:19AM 42.1330 11.0680 113° Southeast 511 588 37,000  Level FlightAware
07:20AM 42.0760 11.1720 126° Southeast 520 598 37,000  Level FlightAware
07:21AM 42.0300 11.2460 130° Southeast 520 598 37,000  Level FlightAware
07:21AM 41.9520 11.3690 130° Southeast 518 596 37,000  Level FlightAware
07:22AM 41.8980 11.4540 130° Southeast 517 595 37,000  Level FlightAware
07:23AM 41.8270 11.5640 131° Southeast 517 595 37,000  Level FlightAware
07:23AM 41.7650 11.6610 131° Southeast 519 597 37,000  Level FlightAware
07:24AM 41.6950 11.7690 131° Southeast 523 602 37,000  Level FlightAware
07:25AM 41.6300 11.8690 131° Southeast 518 596 37,000  Level FlightAware
07:25AM 41.5750 11.9540 131° Southeast 519 597 37,000  Level FlightAware
07:26AM 41.5110 12.0520 131° Southeast 519 597 37,000  Level FlightAware
07:27AM 41.4390 12.1620 131° Southeast 520 598 37,000  Level FlightAware
07:27AM 41.3740 12.2620 131° Southeast 519 597 37,000  Level FlightAware
07:28AM 41.2970 12.3780 131° Southeast 525 604 37,000  Level FlightAware
07:29AM 41.2290 12.4800 132° Southeast 525 604 37,000  Level FlightAware
07:30AM 41.1720 12.5790 127° Southeast 523 602 37,000  Level FlightAware
07:30AM 41.1240 12.7010 118° Southeast 521 600 37,000  Level FlightAware
07:31AM 41.0840 12.8260 113° Southeast 519 597 37,000  Level FlightAware
07:32AM 41.0470 12.9370 114° Southeast 518 596 37,000  Level FlightAware
07:32AM 41.0050 13.0680 113° Southeast 519 597 37,000  Level FlightAware
07:33AM 40.9640 13.1940 113° Southeast 518 596 37,000  Level FlightAware
07:34AM 40.9260 13.3100 113° Southeast 518 596 37,000  Level FlightAware
07:34AM 40.8900 13.4210 113° Southeast 519 597 37,000  Level FlightAware
07:35AM 40.8500 13.5390 114° Southeast 519 597 37,000  Level FlightAware
07:36AM 40.8080 13.6640 114° Southeast 518 596 37,000  Level FlightAware
07:37AM 40.7690 13.7850 113° Southeast 518 596 37,000  Level FlightAware
07:37AM 40.7290 13.9010 114° Southeast 518 596 37,000  Level FlightAware
07:38AM 40.6880 14.0220 114° Southeast 517 595 37,000  Level FlightAware
07:39AM 40.6470 14.1450 114° Southeast 517 595 37,000  Level FlightAware
07:39AM 40.6140 14.2400 115° Southeast 517 595 37,000  Level FlightAware
07:40AM 40.5660 14.3630 117° Southeast 518 596 37,000  Level FlightAware
07:41AM 40.5130 14.4640 125° Southeast 519 597 37,000  Level FlightAware
07:41AM 40.4590 14.5580 127° Southeast 520 598 37,000  Level FlightAware
07:42AM 40.3990 14.6640 127° Southeast 520 598 37,000  Level FlightAware
07:43AM 40.3410 14.7680 126° Southeast 520 598 37,000  Level FlightAware
07:43AM 40.2910 14.8570 126° Southeast 520 598 37,000  Level FlightAware
07:44AM 40.2280 14.9690 126° Southeast 520 598 37,000  Level FlightAware
07:44AM 40.1770 15.0600 126° Southeast 521 600 37,000  Level FlightAware
07:45AM 40.1180 15.1640 127° Southeast 521 600 37,000  Level FlightAware
07:46AM 40.0540 15.2780 126° Southeast 522 601 37,000  Level FlightAware
07:47AM 39.9960 15.3790 127° Southeast 523 602 37,000  Level FlightAware
07:47AM 39.9370 15.4820 127° Southeast 523 602 37,000  Level FlightAware
07:48AM 39.8740 15.5900 127° Southeast 522 601 37,000  Level FlightAware
07:49AM 39.8140 15.6960 126° Southeast 520 598 37,000  Level FlightAware
07:49AM 39.7610 15.7880 127° Southeast 520 598 37,000  Level FlightAware
07:50AM 39.6960 15.9010 127° Southeast 520 598 37,000  Level FlightAware
07:51AM 39.6300 16.0130 127° Southeast 519 597 37,000  Level FlightAware
07:51AM 39.5720 16.1120 127° Southeast 519 597 37,000  Level FlightAware
07:52AM 39.5080 16.2210 127° Southeast 521 600 37,000  Level FlightAware
07:53AM 39.4590 16.3050 127° Southeast 521 600 37,000  Level FlightAware
07:53AM 39.4010 16.4090 126° Southeast 523 602 37,000  Level FlightAware
07:54AM 39.3520 16.5310 117° Southeast 525 604 37,000  Level FlightAware
07:55AM 39.3180 16.6350 113° Southeast 525 604 37,000  Level FlightAware
07:55AM 39.2820 16.7450 113° Southeast 525 604 37,000  Level FlightAware
07:56AM 39.2390 16.8780 113° Southeast 528 608 37,000  Level FlightAware
07:57AM 39.2050 16.9830 113° Southeast 529 609 37,000  Level FlightAware
07:58AM 39.1630 17.1100 113° Southeast 531 611 37,000  Level FlightAware
07:58AM 39.1220 17.2330 113° Southeast 533 613 37,000  Level FlightAware
07:59AM 39.0830 17.3500 113° Southeast 533 613 37,000  Level FlightAware
08:01AM 38.9320 17.8000 111° Southeast 532 612 37,000  Level FlightAware
08:02AM 38.9480 17.7979 111° Southeast  Level Estimated
08:02AM 38.8900 17.9250 113° Southeast 531 611 37,000  Level FlightAware
08:03AM 38.8590 18.0170 113° Southeast 530 610 37,000  Level FlightAware
08:03AM 38.8200 18.1290 114° Southeast 530 610 37,000  Level FlightAware
08:04AM 38.7800 18.2470 113° Southeast 530 610 37,000  Level FlightAware
08:05AM 38.7320 18.3880 114° Southeast 529 609 37,000  Level FlightAware
08:06AM 38.6920 18.5030 114° Southeast 530 610 37,000  Level FlightAware
08:06AM 38.6480 18.6280 114° Southeast 530 610 37,000  Level FlightAware
08:07AM 38.6130 18.7320 113° Southeast 533 613 37,000  Level FlightAware
08:08AM 38.5770 18.8530 111° Southeast 533 613 37,000  Level FlightAware
08:09AM 38.5240 19.0310 111° Southeast 534 615 37,000  Level FlightAware
08:09AM 38.4970 19.1220 111° Southeast 534 615 37,000  Level FlightAware
08:10AM 38.4460 19.2950 111° Southeast 536 617 37,000  Level FlightAware
08:11AM 38.3800 19.5110 111° Southeast 537 618 37,000  Level FlightAware
08:12AM 38.3430 19.6350 111° Southeast 537 618 37,000  Level FlightAware
08:13AM 38.3050 19.7590 111° Southeast 538 619 37,000  Level FlightAware
08:13AM 38.2690 19.8770 111° Southeast 539 620 37,000  Level FlightAware
08:14AM 38.2350 19.9860 112° Southeast 540 621 37,000  Level FlightAware
08:15AM 38.1990 20.1050 111° Southeast 541 623 37,000  Level FlightAware
08:16AM 38.1460 20.2800 111° Southeast 541 623 37,000  Level FlightAware
08:16AM 38.1180 20.3730 111° Southeast 541 623 37,000  Level FlightAware
08:17AM 38.0450 20.6030 112° Southeast 543 625 37,000  Level FlightAware
08:18AM 38.0040 20.7330 112° Southeast 543 625 37,000  Level FlightAware
08:19AM 37.9650 20.8550 112° Southeast 544 626 37,000  Level FlightAware
08:20AM 37.9300 20.9660 112° Southeast 544 626 37,000  Level FlightAware
08:20AM 37.8770 21.1310 112° Southeast 546 628 37,000  Level FlightAware
08:21AM 37.8400 21.2460 112° Southeast 544 626 37,000  Level FlightAware
08:22AM 37.8040 21.3580 112° Southeast 545 627 37,000  Level FlightAware
08:22AM 37.7670 21.4730 112° Southeast 545 627 37,000  Level FlightAware
08:23AM 37.7130 21.6390 112° Southeast 548 631 37,000  Level FlightAware
08:24AM 37.6720 21.7660 112° Southeast 550 633 37,000  Level FlightAware
08:25AM 37.6330 21.8850 112° Southeast 552 635 37,000  Level FlightAware
08:25AM 37.5880 22.0190 113° Southeast 554 638 37,000  Level FlightAware
08:26AM 37.5510 22.1350 112° Southeast 551 634 37,000  Level FlightAware
08:27AM 37.5060 22.2680 113° Southeast 553 636 37,000  Level FlightAware
08:28AM 37.4600 22.4080 112° Southeast 554 638 37,000  Level FlightAware
08:28AM 37.4250 22.5120 113° Southeast 554 638 37,000  Level FlightAware
08:29AM 37.3740 22.6630 113° Southeast 553 636 37,000  Level FlightAware
08:30AM 37.3330 22.7840 113° Southeast 553 636 37,000  Level FlightAware
08:30AM 37.2900 22.9110 113° Southeast 552 635 37,000  Level FlightAware
08:31AM 37.2490 23.0320 113° Southeast 552 635 37,000  Level FlightAware
08:32AM 37.2080 23.1520 113° Southeast 551 634 37,000  Level FlightAware
08:32AM 37.1630 23.2840 113° Southeast 547 629 37,000  Level FlightAware
08:33AM 37.1210 23.4060 113° Southeast 545 627 37,000  Level FlightAware
08:34AM 37.0810 23.5190 114° Southeast 544 626 37,000  Level FlightAware
08:35AM 37.0350 23.6550 113° Southeast 544 626 37,000  Level FlightAware
08:35AM 36.9980 23.7580 114° Southeast 544 626 37,000  Level FlightAware
08:36AM 36.9570 23.8760 113° Southeast 544 626 37,000  Level FlightAware
08:37AM 36.9130 24.0000 114° Southeast 543 625 37,000  Level FlightAware
08:37AM 36.8770 24.1000 114° Southeast 544 626 37,000  Level FlightAware
08:38AM 36.8300 24.2350 113° Southeast 542 624 37,000  Level FlightAware
08:39AM 36.7890 24.3490 114° Southeast 542 624 37,000  Level FlightAware
08:39AM 36.7480 24.4660 114° Southeast 543 625 37,000  Level FlightAware
08:40AM 36.7050 24.5840 114° Southeast 543 625 37,000  Level FlightAware
08:41AM 36.6680 24.6890 114° Southeast 543 625 37,000  Level FlightAware
08:41AM 36.6220 24.8150 114° Southeast 544 626 37,000  Level FlightAware
08:42AM 36.5810 24.9290 114° Southeast 543 625 37,000  Level FlightAware
08:43AM 36.5440 25.0310 114° Southeast 544 626 37,000  Level FlightAware
08:43AM 36.5000 25.1510 114° Southeast 544 626 37,000  Level FlightAware
08:44AM 36.4580 25.2650 115° Southeast 545 627 37,000  Level FlightAware
08:44AM 36.4330 25.3330 115° Southeast 545 627 37,000  Level FlightAware
08:46AM 36.3530 25.5490 115° Southeast 545 627 37,000  Level FlightAware
08:46AM 36.3080 25.6690 115° Southeast 545 627 37,000  Level FlightAware
08:47AM 36.2620 25.7930 115° Southeast 546 628 37,000  Level FlightAware
08:48AM 36.2200 25.9070 115° Southeast 546 628 37,000  Level FlightAware
08:48AM 36.1790 26.0170 115° Southeast 547 629 37,000  Level FlightAware
08:49AM 36.1380 26.1230 116° Southeast 548 631 37,000  Level FlightAware
08:50AM 36.0930 26.2410 115° Southeast 546 628 37,000  Level FlightAware
08:50AM 36.0470 26.3660 114° Southeast 545 627 37,000  Level FlightAware
08:51AM 36.0000 26.4890 115° Southeast 543 625 37,000  Level FlightAware
08:52AM 35.9540 26.6070 116° Southeast 542 624 37,000  Level FlightAware
08:53AM 35.9110 26.7210 115° Southeast 541 623 37,000  Level FlightAware
08:53AM 35.8630 26.8470 115° Southeast 540 621 37,000  Level FlightAware
08:54AM 35.8280 26.9370 116° Southeast 540 621 37,000  Level FlightAware
08:55AM 35.7750 27.0790 115° Southeast 540 621 37,000  Level FlightAware
08:56AM 35.7420 27.1640 116° Southeast 540 621 37,000  Level FlightAware
08:56AM 35.7000 27.2760 115° Southeast 540 621 37,000  Level FlightAware
08:57AM 35.6680 27.3610 115° Southeast 540 621 37,000  Level FlightAware
08:58AM 35.6240 27.4770 115° Southeast 540 621 37,000  Level FlightAware
08:58AM 35.5930 27.5580 115° Southeast 540 621 37,000  Level FlightAware
08:59AM 35.5610 27.6430 115° Southeast 540 621 37,000  Level FlightAware
09:00AM 35.4030 28.0120 118° Southeast 534 615 37,000  Level FlightAware
09:01AM 35.3520 28.1400 116° Southeast 538 619 37,000  Level FlightAware
09:02AM 35.3100 28.2440 116° Southeast 537 618 37,000  Level FlightAware
09:03AM 35.2620 28.3640 116° Southeast 537 618 37,000  Level FlightAware
09:03AM 35.2130 28.4860 116° Southeast 537 618 37,000  Level FlightAware
09:04AM 35.1670 28.5980 117° Southeast 538 619 37,000  Level FlightAware
09:05AM 35.1110 28.7340 117° Southeast 537 618 37,000  Level FlightAware
09:06AM 35.0650 28.8510 116° Southeast 537 618 37,000  Level FlightAware
09:06AM 34.9980 29.0090 117° Southeast 535 616 37,000  Level FlightAware
09:07AM 34.9490 29.1280 117° Southeast 535 616 37,000  Level FlightAware
09:08AM 34.9010 29.2430 117° Southeast 535 616 37,000  Level FlightAware
09:09AM 34.8450 29.3780 117° Southeast 534 615 37,000  Level FlightAware
09:10AM 34.7990 29.4870 117° Southeast 533 613 37,000  Level FlightAware
09:10AM 34.7470 29.6130 117° Southeast 533 613 37,000  Level FlightAware
09:11AM 34.7050 29.7120 117° Southeast 533 613 37,000  Level FlightAware
09:12AM 34.6620 29.8150 117° Southeast 532 612 37,000  Level FlightAware
09:12AM 34.6130 29.9260 118° Southeast 530 610 37,000  Level FlightAware
09:13AM 34.5510 30.0540 120° Southeast 524 603 37,000  Level FlightAware
09:14AM 34.4960 30.1660 121° Southeast 524 603 37,000  Level FlightAware
09:15AM 34.4450 30.2740 120° Southeast 526 605 37,000  Level FlightAware
09:15AM 34.3930 30.3840 120° Southeast 525 604 37,000  Level FlightAware
09:16AM 34.3380 30.5000 120° Southeast 526 605 37,000  Level FlightAware
09:17AM 34.2940 30.5890 121° Southeast 525 604 37,000  Level FlightAware
09:17AM 34.2390 30.7040 120° Southeast 524 603 37,000  Level FlightAware
09:18AM 34.1890 30.8090 120° Southeast 524 603 37,000  Level FlightAware
09:19AM 34.1450 30.9000 120° Southeast 523 602 37,000  Level FlightAware
09:19AM 34.0880 31.0140 121° Southeast 523 602 37,000  Level FlightAware
09:20AM 34.0390 31.1150 120° Southeast 521 600 37,000  Level FlightAware
09:21AM 33.9990 31.1980 120° Southeast 524 603 37,000  Level FlightAware
09:21AM 33.9430 31.3120 121° Southeast 519 597 37,000  Level FlightAware
09:22AM 33.8900 31.4190 121° Southeast 517 595 37,000  Level FlightAware
09:23AM 33.8430 31.5140 121° Southeast 516 594 37,000  Level FlightAware
09:23AM 33.7880 31.6250 121° Southeast 515 593 37,000  Level FlightAware
09:24AM 33.7330 31.7340 121° Southeast 514 592 37,000  Level FlightAware
09:25AM 33.6840 31.8330 121° Southeast 514 592 37,000  Level FlightAware
09:25AM 33.6390 31.9250 120° Southeast 514 592 37,000  Level FlightAware
09:26AM 33.5890 32.0230 121° Southeast 513 590 37,000  Level FlightAware
09:27AM 33.5410 32.1210 120° Southeast 513 590 37,000  Level FlightAware
09:27AM 33.4990 32.2040 121° Southeast 512 589 37,000  Level FlightAware
09:28AM 33.4420 32.3150 122° Southeast 513 590 37,000  Level FlightAware
09:29AM 33.3900 32.4180 121° Southeast 512 589 37,000 -600 Level FlightAware
09:29AM 33.3480 32.5000 121° Southeast 513 590 36,300 -1,380 Descending FlightAware
09:30AM 33.2920 32.6110 121° Southeast 524 603 35,200 -1,500 Descending FlightAware
09:31AM 33.2420 32.7080 122° Southeast 526 605 34,200 -1,200 Descending FlightAware
09:32AM 33.1530 32.8830 121° Southeast 518 596 33,100 -900 Descending FlightAware
09:33AM 33.0980 32.9900 122° Southeast 513 590 32,600 -720 Descending FlightAware
09:34AM 33.0310 33.1190 122° Southeast 504 580 32,000 -660 Descending FlightAware
09:34AM 32.9880 33.2010 122° Southeast 499 574 31,700 -540 Descending FlightAware
09:35AM 32.9360 33.3010 122° Southeast 494 568 31,300 -600 Descending FlightAware
09:36AM 32.8900 33.4000 119° Southeast 492 566 30,900 -540 Descending FlightAware
09:36AM 32.8790 33.4440 107° East 491 565 30,800 -540 Descending FlightAware
09:37AM 32.8790 33.5590 90° East 486 559 30,400 -540 Descending FlightAware
09:37AM 32.8900 33.6590 83° East 476 548 30,100 -960 Descending FlightAware
09:38AM 32.9310 33.7590 64° Northeast 452 520 29,100 -1,320 Descending FlightAware
09:39AM 32.9940 33.8180 38° Northeast 432 497 28,300 -1,380 Descending FlightAware
09:39AM 33.0940 33.8310 North 406 467 27,000 -1,560 Descending FlightAware
09:40AM 33.1180 33.8140 329° Northwest 392 451 26,500 -2,280 Descending FlightAware
09:40AM 33.1350 33.7890 309° West 395 455 25,900 -2,280 Descending FlightAware
09:40AM 33.1450 33.7590 292° West 389 448 25,400 -2,100 Descending FlightAware
09:40AM 33.1470 33.7360 276° West 384 442 25,000 -3,780 Descending FlightAware
09:41AM 33.1170 33.6520 247° West 387 445 22,000 -3,600 Descending FlightAware
09:41AM 33.0960 33.6330 217° Southwest 391 450 21,400 -2,220 Descending FlightAware
09:42AM 33.0170 33.6210 187° South 400 460 19,900 -2,040 Descending FlightAware
09:42AM 32.9910 33.6340 157° South 405 466 19,500 -1,320 Descending FlightAware
09:43AM 32.9730 33.6480 147° Southeast 407 468 19,300 -1,200 Descending FlightAware
09:43AM 32.9110 33.7160 137° Southeast 399 459 18,400 -1,320 Descending FlightAware
09:44AM 32.8570 33.7780 136° Southeast 394 453 17,500 -1,320 Descending FlightAware
09:45AM 32.7990 33.8410 138° Southeast 389 448 16,600 -1,200 Descending FlightAware
09:45AM 32.7430 33.9020 137° Southeast 382 440 15,800 -1,200 Descending FlightAware
09:46AM 32.6950 33.9550 137° Southeast 378 435 15,000 -1,200 Descending FlightAware
09:47AM 32.6430 34.0110 138° Southeast 373 429 14,300 -1,140 Descending FlightAware
09:47AM 32.5940 34.0660 137° Southeast 369 425 13,500 -1,200 Descending FlightAware
09:48AM 32.5330 34.1320 138° Southeast 365 420 12,600 -1,140 Descending FlightAware
09:49AM 32.4830 34.1850 138° Southeast 361 415 11,900 -1,140 Descending FlightAware
09:50AM 32.4260 34.2470 137° Southeast 357 411 11,000 -1,200 Descending FlightAware
09:50AM 32.3900 34.2870 137° Southeast 339 390 10,400 -1,140 Descending FlightAware
09:51AM 32.3550 34.3250 137° Southeast 321 369 9,900 -1,080 Descending FlightAware
09:51AM 32.3260 34.3570 137° Southeast 299 344 9,400 -1,140 Descending FlightAware
09:52AM 32.2990 34.3850 139° Southeast 292 336 8,900 -780 Descending FlightAware
09:52AM 32.2630 34.4340 131° Southeast 291 335 8,500 -360 Descending FlightAware
09:53AM 32.2450 34.4590 130° Southeast 291 335 8,500  Level FlightAware
09:53AM 32.2380 34.4690 130° Southeast 291 335 8,500  Level FlightAware
09:53AM 32.2190 34.4960 130° Southeast 291 335 8,500  Level FlightAware
09:56AM 32.0412 34.7979 125° Southeast  Level FlightAware Approximate
09:57AM 32.0000 34.8667 125° Southeast  Level FlightAware Approximate
09:58AM 32.0095 34.8769 125° Southeast  Level Estimated
09:59AM 32.0095 34.8769 125° Southeast  Level Estimated
10:00AM 32.0095 34.8769 125° Southeast  Level Estimated
10:01AM 32.0095 34.8769 125° Southeast  Level Estimated
10:02AM 32.0095 34.8769 125° Southeast  Level Estimated
10:03AM 32.0095 34.8769 125° Southeast  Level Estimated
10:04AM 32.0095 34.8769 125° Southeast  Level Estimated